Station Historical Data
Daily Summary for February 5, 2017 Units:  Both    English   Metric
« Previous Day
Next Day »
Daily Weekly Monthly Yearly Custom
  High: Low: Average:
Temperature: 33.5 °F /  0.8 °C 25.1 °F /  -3.8 °C 30 °F /  -1.1 °C
Dew Point: 27.8 °F /  -2.3 °C 11.0 °F /  -11.7 °C 20.9 °F /  -6.2 °C
Humidity: 90% 49% 70%
Wind Speed: 16.0mph /  25.7km/h - 6.7mph /  10.8km/h
Wind Gust: 27.0mph /  43.5km/h - -
Wind- - WSW
Pressure: 30.10 in /  1019.2 hPa 29.81 in /  1009.4 hPa -
Precipitation: 0.00 in /  0 mm    
Historical Graphs
 
 
Tabular Data for February 5, 2017
Time Temperature Dew Point Pressure Wind Wind Speed Wind Gust Humidity Rainfall Rate (Hourly)
00:04 25.4 °F /  -3.7 °C 12.3 °F /  -10.9 °C 30.10in /  1019.2hPa SSW 1.0mph /  1.6km/h 4.0mph /  6.4km/h 57% 0.00in /  0mm
00:09 25.4 °F /  -3.7 °C 12.3 °F /  -10.9 °C 30.10in /  1019.2hPa SSW 2.0mph /  3.2km/h 4.0mph /  6.4km/h 57% 0.00in /  0mm
00:14 25.4 °F /  -3.7 °C 12.3 °F /  -10.9 °C 30.09in /  1018.8hPa SSW 2.0mph /  3.2km/h 4.0mph /  6.4km/h 57% 0.00in /  0mm
00:24 25.6 °F /  -3.6 °C 12.5 °F /  -10.8 °C 30.09in /  1018.8hPa SSW 2.0mph /  3.2km/h 5.0mph /  8km/h 57% 0.00in /  0mm
00:29 25.9 °F /  -3.4 °C 12.7 °F /  -10.7 °C 30.09in /  1018.8hPa SSW 2.0mph /  3.2km/h 6.0mph /  9.7km/h 57% 0.00in /  0mm
00:34 26.0 °F /  -3.3 °C 12.4 °F /  -10.9 °C 30.08in /  1018.5hPa SSW 2.0mph /  3.2km/h 5.0mph /  8km/h 56% 0.00in /  0mm
00:39 26.0 °F /  -3.3 °C 12.8 °F /  -10.7 °C 30.08in /  1018.5hPa SSW 2.0mph /  3.2km/h 5.0mph /  8km/h 57% 0.00in /  0mm
00:44 25.9 °F /  -3.4 °C 12.7 °F /  -10.7 °C 30.07in /  1018.2hPa SSW 2.0mph /  3.2km/h 6.0mph /  9.7km/h 57% 0.00in /  0mm
00:49 25.8 °F /  -3.4 °C 12.6 °F /  -10.8 °C 30.07in /  1018.2hPa SSW 2.0mph /  3.2km/h 6.0mph /  9.7km/h 57% 0.00in /  0mm
00:54 25.6 °F /  -3.6 °C 12.9 °F /  -10.6 °C 30.06in /  1017.8hPa South 2.0mph /  3.2km/h 4.0mph /  6.4km/h 58% 0.00in /  0mm
00:59 25.5 °F /  -3.6 °C 12.8 °F /  -10.7 °C 30.06in /  1017.8hPa South 1.0mph /  1.6km/h 3.0mph /  4.8km/h 58% 0.00in /  0mm
01:05 25.3 °F /  -3.7 °C 12.6 °F /  -10.8 °C 30.06in /  1017.8hPa South 1.0mph /  1.6km/h 3.0mph /  4.8km/h 58% 0.00in /  0mm
01:10 25.1 °F /  -3.8 °C 12.8 °F /  -10.7 °C 30.05in /  1017.5hPa South 2.0mph /  3.2km/h 3.0mph /  4.8km/h 59% 0.00in /  0mm
01:15 25.3 °F /  -3.7 °C 12.6 °F /  -10.8 °C 30.04in /  1017.2hPa South 2.0mph /  3.2km/h 5.0mph /  8km/h 58% 0.00in /  0mm
01:20 25.4 °F /  -3.7 °C 13.1 °F /  -10.5 °C 30.04in /  1017.2hPa South 3.0mph /  4.8km/h 5.0mph /  8km/h 59% 0.00in /  0mm
01:25 25.6 °F /  -3.6 °C 12.5 °F /  -10.8 °C 30.04in /  1017.2hPa SSE 3.0mph /  4.8km/h 7.0mph /  11.3km/h 57% 0.00in /  0mm
01:30 25.7 °F /  -3.5 °C 12.6 °F /  -10.8 °C 30.03in /  1016.8hPa South 3.0mph /  4.8km/h 5.0mph /  8km/h 57% 0.00in /  0mm
01:35 25.7 °F /  -3.5 °C 12.2 °F /  -11 °C 30.03in /  1016.8hPa SSE 4.0mph /  6.4km/h 5.0mph /  8km/h 56% 0.00in /  0mm
01:40 25.8 °F /  -3.4 °C 11.8 °F /  -11.2 °C 30.03in /  1016.8hPa South 4.0mph /  6.4km/h 8.0mph /  12.9km/h 55% 0.00in /  0mm
01:45 25.8 °F /  -3.4 °C 12.2 °F /  -11 °C 30.03in /  1016.8hPa South 4.0mph /  6.4km/h 8.0mph /  12.9km/h 56% 0.00in /  0mm
01:50 26.0 °F /  -3.3 °C 12.0 °F /  -11.1 °C 30.02in /  1016.5hPa SSW 4.0mph /  6.4km/h 8.0mph /  12.9km/h 55% 0.00in /  0mm
01:55 26.0 °F /  -3.3 °C 12.0 °F /  -11.1 °C 30.02in /  1016.5hPa SSW 2.0mph /  3.2km/h 7.0mph /  11.3km/h 55% 0.00in /  0mm
02:00 26.0 °F /  -3.3 °C 12.0 °F /  -11.1 °C 30.02in /  1016.5hPa SSW 2.0mph /  3.2km/h 5.0mph /  8km/h 55% 0.00in /  0mm
02:05 25.8 °F /  -3.4 °C 12.2 °F /  -11 °C 30.02in /  1016.5hPa SSW 2.0mph /  3.2km/h 4.0mph /  6.4km/h 56% 0.00in /  0mm
02:10 25.7 °F /  -3.5 °C 12.2 °F /  -11 °C 30.01in /  1016.1hPa SSW 3.0mph /  4.8km/h 6.0mph /  9.7km/h 56% 0.00in /  0mm
02:15 25.8 °F /  -3.4 °C 11.8 °F /  -11.2 °C 30.01in /  1016.1hPa SSW 3.0mph /  4.8km/h 6.0mph /  9.7km/h 55% 0.00in /  0mm
02:20 25.9 °F /  -3.4 °C 11.9 °F /  -11.2 °C 30.01in /  1016.1hPa SW 5.0mph /  8km/h 7.0mph /  11.3km/h 55% 0.00in /  0mm
02:30 25.8 °F /  -3.4 °C 11.8 °F /  -11.2 °C 30.01in /  1016.1hPa SSW 3.0mph /  4.8km/h 8.0mph /  12.9km/h 55% 0.00in /  0mm
02:35 25.9 °F /  -3.4 °C 12.3 °F /  -10.9 °C 30.00in /  1015.8hPa South 2.0mph /  3.2km/h 6.0mph /  9.7km/h 56% 0.00in /  0mm
02:40 26.1 °F /  -3.3 °C 12.1 °F /  -11.1 °C 30.00in /  1015.8hPa SSW 2.0mph /  3.2km/h 8.0mph /  12.9km/h 55% 0.00in /  0mm
02:45 26.1 °F /  -3.3 °C 12.1 °F /  -11.1 °C 30.00in /  1015.8hPa South 4.0mph /  6.4km/h 8.0mph /  12.9km/h 55% 0.00in /  0mm
02:50 26.3 °F /  -3.2 °C 11.9 °F /  -11.2 °C 30.00in /  1015.8hPa South 4.0mph /  6.4km/h 9.0mph /  14.5km/h 54% 0.00in /  0mm
02:55 26.4 °F /  -3.1 °C 12.0 °F /  -11.1 °C 30.00in /  1015.8hPa SSW 3.0mph /  4.8km/h 7.0mph /  11.3km/h 54% 0.00in /  0mm
03:00 26.5 °F /  -3.1 °C 11.7 °F /  -11.3 °C 29.99in /  1015.5hPa SSW 3.0mph /  4.8km/h 8.0mph /  12.9km/h 53% 0.00in /  0mm
03:05 26.5 °F /  -3.1 °C 12.1 °F /  -11.1 °C 29.99in /  1015.5hPa South 4.0mph /  6.4km/h 7.0mph /  11.3km/h 54% 0.00in /  0mm
03:10 26.6 °F /  -3 °C 11.7 °F /  -11.3 °C 29.98in /  1015.1hPa South 7.0mph /  11.3km/h 9.0mph /  14.5km/h 53% 0.00in /  0mm
03:15 26.8 °F /  -2.9 °C 11.9 °F /  -11.2 °C 29.98in /  1015.1hPa SSW 5.0mph /  8km/h 10.0mph /  16.1km/h 53% 0.00in /  0mm
03:20 26.9 °F /  -2.8 °C 11.6 °F /  -11.3 °C 29.98in /  1015.1hPa SSW 4.0mph /  6.4km/h 10.0mph /  16.1km/h 52% 0.00in /  0mm
03:25 27.0 °F /  -2.8 °C 11.7 °F /  -11.3 °C 29.98in /  1015.1hPa South 3.0mph /  4.8km/h 9.0mph /  14.5km/h 52% 0.00in /  0mm
03:30 27.2 °F /  -2.7 °C 11.4 °F /  -11.4 °C 29.98in /  1015.1hPa SSW 4.0mph /  6.4km/h 9.0mph /  14.5km/h 51% 0.00in /  0mm
03:35 27.3 °F /  -2.6 °C 11.5 °F /  -11.4 °C 29.97in /  1014.8hPa SSW 4.0mph /  6.4km/h 7.0mph /  11.3km/h 51% 0.00in /  0mm
03:40 27.4 °F /  -2.6 °C 11.2 °F /  -11.6 °C 29.97in /  1014.8hPa SW 6.0mph /  9.7km/h 10.0mph /  16.1km/h 50% 0.00in /  0mm
03:45 27.7 °F /  -2.4 °C 11.0 °F /  -11.7 °C 29.97in /  1014.8hPa SW 7.0mph /  11.3km/h 10.0mph /  16.1km/h 49% 0.00in /  0mm
03:50 27.7 °F /  -2.4 °C 11.0 °F /  -11.7 °C 29.96in /  1014.4hPa SW 5.0mph /  8km/h 11.0mph /  17.7km/h 49% 0.00in /  0mm
03:55 27.8 °F /  -2.3 °C 11.1 °F /  -11.6 °C 29.96in /  1014.4hPa SW 5.0mph /  8km/h 11.0mph /  17.7km/h 49% 0.00in /  0mm
04:00 27.7 °F /  -2.4 °C 11.0 °F /  -11.7 °C 29.96in /  1014.4hPa SW 6.0mph /  9.7km/h 12.0mph /  19.3km/h 49% 0.00in /  0mm
04:04 27.4 °F /  -2.6 °C 11.2 °F /  -11.6 °C 29.96in /  1014.4hPa SW 2.0mph /  3.2km/h 11.0mph /  17.7km/h 50% 0.00in /  0mm
04:10 27.3 °F /  -2.6 °C 11.1 °F /  -11.6 °C 29.96in /  1014.4hPa SSW 4.0mph /  6.4km/h 10.0mph /  16.1km/h 50% 0.00in /  0mm
04:15 27.1 °F /  -2.7 °C 11.3 °F /  -11.5 °C 29.96in /  1014.4hPa West 5.0mph /  8km/h 7.0mph /  11.3km/h 51% 0.00in /  0mm
04:20 26.9 °F /  -2.8 °C 11.6 °F /  -11.3 °C 29.95in /  1014.1hPa South 3.0mph /  4.8km/h 9.0mph /  14.5km/h 52% 0.00in /  0mm
04:25 27.0 °F /  -2.8 °C 11.7 °F /  -11.3 °C 29.95in /  1014.1hPa SW 4.0mph /  6.4km/h 9.0mph /  14.5km/h 52% 0.00in /  0mm
04:30 27.0 °F /  -2.8 °C 11.7 °F /  -11.3 °C 29.95in /  1014.1hPa SSW 4.0mph /  6.4km/h 8.0mph /  12.9km/h 52% 0.00in /  0mm
04:35 27.0 °F /  -2.8 °C 12.1 °F /  -11.1 °C 29.94in /  1013.8hPa SSW 6.0mph /  9.7km/h 8.0mph /  12.9km/h 53% 0.00in /  0mm
04:40 26.9 °F /  -2.8 °C 12.0 °F /  -11.1 °C 29.94in /  1013.8hPa SW 8.0mph /  12.9km/h 8.0mph /  12.9km/h 53% 0.00in /  0mm
04:45 26.7 °F /  -2.9 °C 11.8 °F /  -11.2 °C 29.94in /  1013.8hPa SW 2.0mph /  3.2km/h 7.0mph /  11.3km/h 53% 0.00in /  0mm
04:50 26.6 °F /  -3 °C 12.2 °F /  -11 °C 29.94in /  1013.8hPa SW 3.0mph /  4.8km/h 8.0mph /  12.9km/h 54% 0.00in /  0mm
04:55 26.6 °F /  -3 °C 12.2 °F /  -11 °C 29.93in /  1013.4hPa SSW 3.0mph /  4.8km/h 9.0mph /  14.5km/h 54% 0.00in /  0mm
05:00 26.6 °F /  -3 °C 12.2 °F /  -11 °C 29.93in /  1013.4hPa SSW 4.0mph /  6.4km/h 9.0mph /  14.5km/h 54% 0.00in /  0mm
05:05 26.7 °F /  -2.9 °C 12.3 °F /  -10.9 °C 29.93in /  1013.4hPa SSW 4.0mph /  6.4km/h 10.0mph /  16.1km/h 54% 0.00in /  0mm
05:10 26.7 °F /  -2.9 °C 12.7 °F /  -10.7 °C 29.93in /  1013.4hPa SW 4.0mph /  6.4km/h 10.0mph /  16.1km/h 55% 0.00in /  0mm
05:14 26.8 °F /  -2.9 °C 12.4 °F /  -10.9 °C 29.93in /  1013.4hPa SSW 3.0mph /  4.8km/h 8.0mph /  12.9km/h 54% 0.00in /  0mm
05:19 26.9 °F /  -2.8 °C 12.9 °F /  -10.6 °C 29.93in /  1013.4hPa SSW 4.0mph /  6.4km/h 9.0mph /  14.5km/h 55% 0.00in /  0mm
05:24 27.1 °F /  -2.7 °C 12.6 °F /  -10.8 °C 29.93in /  1013.4hPa SSW 4.0mph /  6.4km/h 9.0mph /  14.5km/h 54% 0.00in /  0mm
05:30 27.0 °F /  -2.8 °C 12.5 °F /  -10.8 °C 29.93in /  1013.4hPa SSW 4.0mph /  6.4km/h 8.0mph /  12.9km/h 54% 0.00in /  0mm
05:35 27.1 °F /  -2.7 °C 12.2 °F /  -11 °C 29.92in /  1013.1hPa SSW 4.0mph /  6.4km/h 8.0mph /  12.9km/h 53% 0.00in /  0mm
05:40 27.2 °F /  -2.7 °C 12.7 °F /  -10.7 °C 29.92in /  1013.1hPa SSW 4.0mph /  6.4km/h 8.0mph /  12.9km/h 54% 0.00in /  0mm
05:45 27.2 °F /  -2.7 °C 12.3 °F /  -10.9 °C 29.92in /  1013.1hPa SW 4.0mph /  6.4km/h 8.0mph /  12.9km/h 53% 0.00in /  0mm
05:50 27.3 °F /  -2.6 °C 12.4 °F /  -10.9 °C 29.91in /  1012.8hPa SSE 6.0mph /  9.7km/h 11.0mph /  17.7km/h 53% 0.00in /  0mm
05:55 27.4 °F /  -2.6 °C 12.9 °F /  -10.6 °C 29.91in /  1012.8hPa SSW 5.0mph /  8km/h 7.0mph /  11.3km/h 54% 0.00in /  0mm
05:59 27.4 °F /  -2.6 °C 12.5 °F /  -10.8 °C 29.91in /  1012.8hPa SSW 4.0mph /  6.4km/h 7.0mph /  11.3km/h 53% 0.00in /  0mm
06:05 27.4 °F /  -2.6 °C 12.5 °F /  -10.8 °C 29.91in /  1012.8hPa SSW 4.0mph /  6.4km/h 8.0mph /  12.9km/h 53% 0.00in /  0mm
06:10 27.4 °F /  -2.6 °C 12.9 °F /  -10.6 °C 29.91in /  1012.8hPa SSW 4.0mph /  6.4km/h 9.0mph /  14.5km/h 54% 0.00in /  0mm
06:14 27.5 °F /  -2.5 °C 12.6 °F /  -10.8 °C 29.90in /  1012.4hPa SSW 3.0mph /  4.8km/h 11.0mph /  17.7km/h 53% 0.00in /  0mm
06:19 27.5 °F /  -2.5 °C 13.0 °F /  -10.6 °C 29.90in /  1012.4hPa SSW 6.0mph /  9.7km/h 8.0mph /  12.9km/h 54% 0.00in /  0mm
06:24 27.5 °F /  -2.5 °C 13.0 °F /  -10.6 °C 29.90in /  1012.4hPa SSE 4.0mph /  6.4km/h 8.0mph /  12.9km/h 54% 0.00in /  0mm
06:29 27.6 °F /  -2.4 °C 13.1 °F /  -10.5 °C 29.90in /  1012.4hPa SSW 4.0mph /  6.4km/h 8.0mph /  12.9km/h 54% 0.00in /  0mm
06:34 27.7 °F /  -2.4 °C 13.2 °F /  -10.4 °C 29.89in /  1012.1hPa SSW 4.0mph /  6.4km/h 9.0mph /  14.5km/h 54% 0.00in /  0mm
06:40 27.8 °F /  -2.3 °C 13.3 °F /  -10.4 °C 29.90in /  1012.4hPa SSW 4.0mph /  6.4km/h 9.0mph /  14.5km/h 54% 0.00in /  0mm
06:45 27.9 °F /  -2.3 °C 13.4 °F /  -10.3 °C 29.89in /  1012.1hPa SSW 4.0mph /  6.4km/h 7.0mph /  11.3km/h 54% 0.00in /  0mm
06:50 28.0 °F /  -2.2 °C 13.5 °F /  -10.3 °C 29.89in /  1012.1hPa SSW 3.0mph /  4.8km/h 8.0mph /  12.9km/h 54% 0.00in /  0mm
06:55 28.1 °F /  -2.2 °C 13.6 °F /  -10.2 °C 29.89in /  1012.1hPa SSW 2.0mph /  3.2km/h 9.0mph /  14.5km/h 54% 0.00in /  0mm
07:00 28.1 °F /  -2.2 °C 14.0 °F /  -10 °C 29.89in /  1012.1hPa WSW 4.0mph /  6.4km/h 8.0mph /  12.9km/h 55% 0.00in /  0mm
07:04 28.2 °F /  -2.1 °C 14.1 °F /  -9.9 °C 29.89in /  1012.1hPa SSW 3.0mph /  4.8km/h 8.0mph /  12.9km/h 55% 0.00in /  0mm
07:09 28.3 °F /  -2.1 °C 14.2 °F /  -9.9 °C 29.88in /  1011.7hPa SSE 5.0mph /  8km/h 13.0mph /  20.9km/h 55% 0.00in /  0mm
07:14 28.7 °F /  -1.8 °C 14.6 °F /  -9.7 °C 29.88in /  1011.7hPa WSW 5.0mph /  8km/h 9.0mph /  14.5km/h 55% 0.00in /  0mm
07:19 28.9 °F /  -1.7 °C 15.2 °F /  -9.3 °C 29.88in /  1011.7hPa SSW 7.0mph /  11.3km/h 14.0mph /  22.5km/h 56% 0.00in /  0mm
07:24 29.4 °F /  -1.4 °C 15.2 °F /  -9.3 °C 29.88in /  1011.7hPa South 8.0mph /  12.9km/h 12.0mph /  19.3km/h 55% 0.00in /  0mm
07:30 29.8 °F /  -1.2 °C 16.8 °F /  -8.4 °C 29.87in /  1011.4hPa South 5.0mph /  8km/h 18.0mph /  29km/h 58% 0.00in /  0mm
07:34 30.2 °F /  -1 °C 18.0 °F /  -7.8 °C 29.87in /  1011.4hPa SW 7.0mph /  11.3km/h 18.0mph /  29km/h 60% 0.00in /  0mm
07:39 30.5 °F /  -0.8 °C 18.3 °F /  -7.6 °C 29.87in /  1011.4hPa SW 6.0mph /  9.7km/h 15.0mph /  24.1km/h 60% 0.00in /  0mm
07:45 30.7 °F /  -0.7 °C 18.8 °F /  -7.3 °C 29.87in /  1011.4hPa WSW 8.0mph /  12.9km/h 22.0mph /  35.4km/h 61% 0.00in /  0mm
07:50 30.7 °F /  -0.7 °C 20.7 °F /  -6.3 °C 29.87in /  1011.4hPa WSW 11.0mph /  17.7km/h 22.0mph /  35.4km/h 66% 0.00in /  0mm
07:55 30.5 °F /  -0.8 °C 21.2 °F /  -6 °C 29.88in /  1011.7hPa WSW 11.0mph /  17.7km/h 22.0mph /  35.4km/h 68% 0.00in /  0mm
08:00 30.1 °F /  -1.1 °C 21.8 °F /  -5.7 °C 29.88in /  1011.7hPa WSW 9.0mph /  14.5km/h 22.0mph /  35.4km/h 71% 0.00in /  0mm
08:05 29.8 °F /  -1.2 °C 22.5 °F /  -5.3 °C 29.87in /  1011.4hPa SW 6.0mph /  9.7km/h 21.0mph /  33.8km/h 74% 0.00in /  0mm
08:09 29.6 °F /  -1.3 °C 22.6 °F /  -5.2 °C 29.86in /  1011.1hPa SW 8.0mph /  12.9km/h 14.0mph /  22.5km/h 75% 0.00in /  0mm
08:14 29.7 °F /  -1.3 °C 22.4 °F /  -5.3 °C 29.86in /  1011.1hPa SW 8.0mph /  12.9km/h 12.0mph /  19.3km/h 74% 0.00in /  0mm
08:19 30.0 °F /  -1.1 °C 22.1 °F /  -5.5 °C 29.86in /  1011.1hPa WSW 4.0mph /  6.4km/h 8.0mph /  12.9km/h 72% 0.00in /  0mm
08:24 30.5 °F /  -0.8 °C 21.9 °F /  -5.6 °C 29.86in /  1011.1hPa SW 6.0mph /  9.7km/h 11.0mph /  17.7km/h 70% 0.00in /  0mm
08:30 31.1 °F /  -0.5 °C 21.8 °F /  -5.7 °C 29.86in /  1011.1hPa SW 6.0mph /  9.7km/h 11.0mph /  17.7km/h 68% 0.00in /  0mm
08:35 31.6 °F /  -0.2 °C 21.9 °F /  -5.6 °C 29.86in /  1011.1hPa WSW 6.0mph /  9.7km/h 14.0mph /  22.5km/h 67% 0.00in /  0mm
08:39 31.9 °F /  -0.1 °C 21.5 °F /  -5.8 °C 29.86in /  1011.1hPa WSW 7.0mph /  11.3km/h 19.0mph /  30.6km/h 65% 0.00in /  0mm
08:44 32.2 °F /  0.1 °C 21.7 °F /  -5.7 °C 29.86in /  1011.1hPa WSW 8.0mph /  12.9km/h 19.0mph /  30.6km/h 65% 0.00in /  0mm
08:50 32.2 °F /  0.1 °C 21.7 °F /  -5.7 °C 29.86in /  1011.1hPa WSW 9.0mph /  14.5km/h 22.0mph /  35.4km/h 65% 0.00in /  0mm
08:55 32.0 °F /  0 °C 20.4 °F /  -6.4 °C 29.86in /  1011.1hPa WSW 11.0mph /  17.7km/h 22.0mph /  35.4km/h 62% 0.00in /  0mm
09:00 31.7 °F /  -0.2 °C 20.2 °F /  -6.6 °C 29.86in /  1011.1hPa South 9.0mph /  14.5km/h 21.0mph /  33.8km/h 62% 0.00in /  0mm
09:05 31.4 °F /  -0.3 °C 20.6 °F /  -6.3 °C 29.86in /  1011.1hPa WSW 15.0mph /  24.1km/h 27.0mph /  43.5km/h 64% 0.00in /  0mm
09:09 31.3 °F /  -0.4 °C 20.9 °F /  -6.2 °C 29.87in /  1011.4hPa SW 10.0mph /  16.1km/h 27.0mph /  43.5km/h 65% 0.00in /  0mm
09:14 31.0 °F /  -0.6 °C 22.4 °F /  -5.3 °C 29.86in /  1011.1hPa SW 12.0mph /  19.3km/h 22.0mph /  35.4km/h 70% 0.00in /  0mm
09:19 30.7 °F /  -0.7 °C 23.4 °F /  -4.8 °C 29.86in /  1011.1hPa SW 11.0mph /  17.7km/h 22.0mph /  35.4km/h 74% 0.00in /  0mm
09:25 30.3 °F /  -0.9 °C 23.6 °F /  -4.7 °C 29.86in /  1011.1hPa SW 9.0mph /  14.5km/h 17.0mph /  27.4km/h 76% 0.00in /  0mm
09:29 29.9 °F /  -1.2 °C 23.6 °F /  -4.7 °C 29.86in /  1011.1hPa SSW 10.0mph /  16.1km/h 17.0mph /  27.4km/h 77% 0.00in /  0mm
09:34 29.9 °F /  -1.2 °C 23.9 °F /  -4.5 °C 29.86in /  1011.1hPa WSW 7.0mph /  11.3km/h 17.0mph /  27.4km/h 78% 0.00in /  0mm
09:39 29.8 °F /  -1.2 °C 24.1 °F /  -4.4 °C 29.86in /  1011.1hPa West 6.0mph /  9.7km/h 13.0mph /  20.9km/h 79% 0.00in /  0mm
09:44 29.8 °F /  -1.2 °C 24.7 °F /  -4.1 °C 29.86in /  1011.1hPa SW 7.0mph /  11.3km/h 13.0mph /  20.9km/h 81% 0.00in /  0mm
09:49 29.8 °F /  -1.2 °C 25.3 °F /  -3.7 °C 29.86in /  1011.1hPa SW 7.0mph /  11.3km/h 14.0mph /  22.5km/h 83% 0.00in /  0mm
09:54 30.0 °F /  -1.1 °C 26.0 °F /  -3.3 °C 29.86in /  1011.1hPa WSW 8.0mph /  12.9km/h 18.0mph /  29km/h 85% 0.00in /  0mm
10:00 30.1 °F /  -1.1 °C 26.1 °F /  -3.3 °C 29.86in /  1011.1hPa SW 8.0mph /  12.9km/h 16.0mph /  25.7km/h 85% 0.00in /  0mm
10:05 30.0 °F /  -1.1 °C 26.0 °F /  -3.3 °C 29.86in /  1011.1hPa WSW 9.0mph /  14.5km/h 16.0mph /  25.7km/h 85% 0.00in /  0mm
10:10 29.6 °F /  -1.3 °C 25.9 °F /  -3.4 °C 29.87in /  1011.4hPa South 4.0mph /  6.4km/h 19.0mph /  30.6km/h 86% 0.00in /  0mm
10:15 29.1 °F /  -1.6 °C 25.7 °F /  -3.5 °C 29.87in /  1011.4hPa SW 9.0mph /  14.5km/h 21.0mph /  33.8km/h 87% 0.00in /  0mm
10:19 28.9 °F /  -1.7 °C 25.8 °F /  -3.4 °C 29.86in /  1011.1hPa SW 10.0mph /  16.1km/h 21.0mph /  33.8km/h 88% 0.00in /  0mm
10:24 29.0 °F /  -1.7 °C 25.9 °F /  -3.4 °C 29.86in /  1011.1hPa West 9.0mph /  14.5km/h 16.0mph /  25.7km/h 88% 0.00in /  0mm
10:29 29.3 °F /  -1.5 °C 26.5 °F /  -3.1 °C 29.86in /  1011.1hPa WSW 10.0mph /  16.1km/h 17.0mph /  27.4km/h 89% 0.00in /  0mm
10:34 29.5 °F /  -1.4 °C 26.7 °F /  -2.9 °C 29.86in /  1011.1hPa WSW 9.0mph /  14.5km/h 17.0mph /  27.4km/h 89% 0.00in /  0mm
10:39 29.5 °F /  -1.4 °C 26.7 °F /  -2.9 °C 29.86in /  1011.1hPa SW 9.0mph /  14.5km/h 15.0mph /  24.1km/h 89% 0.00in /  0mm
10:44 29.4 °F /  -1.4 °C 26.6 °F /  -3 °C 29.86in /  1011.1hPa WSW 6.0mph /  9.7km/h 11.0mph /  17.7km/h 89% 0.00in /  0mm
10:49 29.5 °F /  -1.4 °C 26.7 °F /  -2.9 °C 29.85in /  1010.7hPa WSW 7.0mph /  11.3km/h 15.0mph /  24.1km/h 89% 0.00in /  0mm
10:54 29.6 °F /  -1.3 °C 26.8 °F /  -2.9 °C 29.86in /  1011.1hPa WSW 8.0mph /  12.9km/h 15.0mph /  24.1km/h 89% 0.00in /  0mm
10:59 29.7 °F /  -1.3 °C 26.9 °F /  -2.8 °C 29.85in /  1010.7hPa SW 8.0mph /  12.9km/h 18.0mph /  29km/h 89% 0.00in /  0mm
11:04 29.8 °F /  -1.2 °C 27.2 °F /  -2.7 °C 29.85in /  1010.7hPa SW 9.0mph /  14.5km/h 20.0mph /  32.2km/h 90% 0.00in /  0mm
11:10 29.7 °F /  -1.3 °C 26.9 °F /  -2.8 °C 29.85in /  1010.7hPa WSW 3.0mph /  4.8km/h 16.0mph /  25.7km/h 89% 0.00in /  0mm
11:15 29.2 °F /  -1.6 °C 26.4 °F /  -3.1 °C 29.85in /  1010.7hPa SSW 6.0mph /  9.7km/h 15.0mph /  24.1km/h 89% 0.00in /  0mm
11:20 29.0 °F /  -1.7 °C 26.2 °F /  -3.2 °C 29.85in /  1010.7hPa SW 5.0mph /  8km/h 13.0mph /  20.9km/h 89% 0.00in /  0mm
11:24 28.9 °F /  -1.7 °C 26.1 °F /  -3.3 °C 29.85in /  1010.7hPa SW 7.0mph /  11.3km/h 19.0mph /  30.6km/h 89% 0.00in /  0mm
11:29 28.8 °F /  -1.8 °C 26.0 °F /  -3.3 °C 29.85in /  1010.7hPa SW 8.0mph /  12.9km/h 21.0mph /  33.8km/h 89% 0.00in /  0mm
11:34 28.8 °F /  -1.8 °C 26.0 °F /  -3.3 °C 29.85in /  1010.7hPa SW 9.0mph /  14.5km/h 21.0mph /  33.8km/h 89% 0.00in /  0mm
11:39 29.0 °F /  -1.7 °C 26.2 °F /  -3.2 °C 29.85in /  1010.7hPa West 11.0mph /  17.7km/h 14.0mph /  22.5km/h 89% 0.00in /  0mm
11:44 29.1 °F /  -1.6 °C 26.3 °F /  -3.2 °C 29.85in /  1010.7hPa SW 11.0mph /  17.7km/h 17.0mph /  27.4km/h 89% 0.00in /  0mm
11:49 29.2 °F /  -1.6 °C 26.4 °F /  -3.1 °C 29.85in /  1010.7hPa West 13.0mph /  20.9km/h 17.0mph /  27.4km/h 89% 0.00in /  0mm
11:54 29.5 °F /  -1.4 °C 26.4 °F /  -3.1 °C 29.85in /  1010.7hPa WSW 10.0mph /  16.1km/h 17.0mph /  27.4km/h 88% 0.00in /  0mm
11:59 30.0 °F /  -1.1 °C 26.9 °F /  -2.8 °C 29.85in /  1010.7hPa WSW 9.0mph /  14.5km/h 16.0mph /  25.7km/h 88% 0.00in /  0mm
12:04 30.7 °F /  -0.7 °C 27.6 °F /  -2.4 °C 29.85in /  1010.7hPa SW 9.0mph /  14.5km/h 21.0mph /  33.8km/h 88% 0.00in /  0mm
12:09 31.2 °F /  -0.4 °C 27.8 °F /  -2.3 °C 29.85in /  1010.7hPa West 9.0mph /  14.5km/h 24.0mph /  38.6km/h 87% 0.00in /  0mm
12:14 31.5 °F /  -0.3 °C 27.5 °F /  -2.5 °C 29.85in /  1010.7hPa West 9.0mph /  14.5km/h 25.0mph /  40.2km/h 85% 0.00in /  0mm
12:20 31.6 °F /  -0.2 °C 27.6 °F /  -2.4 °C 29.84in /  1010.4hPa SSW 8.0mph /  12.9km/h 18.0mph /  29km/h 85% 0.00in /  0mm
12:25 31.7 °F /  -0.2 °C 27.4 °F /  -2.6 °C 29.84in /  1010.4hPa West 15.0mph /  24.1km/h 18.0mph /  29km/h 84% 0.00in /  0mm
12:29 31.7 °F /  -0.2 °C 27.4 °F /  -2.6 °C 29.85in /  1010.7hPa WSW 10.0mph /  16.1km/h 20.0mph /  32.2km/h 84% 0.00in /  0mm
12:34 31.7 °F /  -0.2 °C 27.4 °F /  -2.6 °C 29.84in /  1010.4hPa SW 7.0mph /  11.3km/h 19.0mph /  30.6km/h 84% 0.00in /  0mm
12:39 31.7 °F /  -0.2 °C 27.4 °F /  -2.6 °C 29.84in /  1010.4hPa WSW 7.0mph /  11.3km/h 17.0mph /  27.4km/h 84% 0.00in /  0mm
12:44 31.7 °F /  -0.2 °C 27.4 °F /  -2.6 °C 29.83in /  1010hPa WSW 9.0mph /  14.5km/h 21.0mph /  33.8km/h 84% 0.00in /  0mm
12:49 31.8 °F /  -0.1 °C 27.5 °F /  -2.5 °C 29.83in /  1010hPa West 6.0mph /  9.7km/h 16.0mph /  25.7km/h 84% 0.00in /  0mm
12:54 31.7 °F /  -0.2 °C 27.4 °F /  -2.6 °C 29.83in /  1010hPa WSW 7.0mph /  11.3km/h 19.0mph /  30.6km/h 84% 0.00in /  0mm
12:59 31.8 °F /  -0.1 °C 27.2 °F /  -2.7 °C 29.83in /  1010hPa WSW 13.0mph /  20.9km/h 17.0mph /  27.4km/h 83% 0.00in /  0mm
13:04 31.9 °F /  -0.1 °C 27.3 °F /  -2.6 °C 29.83in /  1010hPa WSW 9.0mph /  14.5km/h 17.0mph /  27.4km/h 83% 0.00in /  0mm
13:09 31.8 °F /  -0.1 °C 27.5 °F /  -2.5 °C 29.83in /  1010hPa WSW 10.0mph /  16.1km/h 19.0mph /  30.6km/h 84% 0.00in /  0mm
13:14 31.9 °F /  -0.1 °C 27.6 °F /  -2.4 °C 29.82in /  1009.7hPa WSW 11.0mph /  17.7km/h 19.0mph /  30.6km/h 84% 0.00in /  0mm
13:19 31.9 °F /  -0.1 °C 27.6 °F /  -2.4 °C 29.82in /  1009.7hPa WSW 10.0mph /  16.1km/h 19.0mph /  30.6km/h 84% 0.00in /  0mm
13:25 31.9 °F /  -0.1 °C 27.6 °F /  -2.4 °C 29.82in /  1009.7hPa WSW 10.0mph /  16.1km/h 21.0mph /  33.8km/h 84% 0.00in /  0mm
13:30 32.0 °F /  0 °C 27.7 °F /  -2.4 °C 29.82in /  1009.7hPa WSW 9.0mph /  14.5km/h 21.0mph /  33.8km/h 84% 0.00in /  0mm
13:34 32.1 °F /  0.1 °C 27.8 °F /  -2.3 °C 29.82in /  1009.7hPa WSW 8.0mph /  12.9km/h 16.0mph /  25.7km/h 84% 0.00in /  0mm
13:39 32.1 °F /  0.1 °C 27.8 °F /  -2.3 °C 29.81in /  1009.4hPa SW 8.0mph /  12.9km/h 18.0mph /  29km/h 84% 0.00in /  0mm
13:44 32.2 °F /  0.1 °C 27.6 °F /  -2.4 °C 29.81in /  1009.4hPa SSW 7.0mph /  11.3km/h 21.0mph /  33.8km/h 83% 0.00in /  0mm
13:49 32.3 °F /  0.2 °C 27.4 °F /  -2.6 °C 29.81in /  1009.4hPa SW 10.0mph /  16.1km/h 16.0mph /  25.7km/h 82% 0.00in /  0mm
13:54 32.3 °F /  0.2 °C 27.1 °F /  -2.7 °C 29.82in /  1009.7hPa WSW 15.0mph /  24.1km/h 19.0mph /  30.6km/h 81% 0.00in /  0mm
13:59 32.4 °F /  0.2 °C 27.2 °F /  -2.7 °C 29.81in /  1009.4hPa SSW 8.0mph /  12.9km/h 19.0mph /  30.6km/h 81% 0.00in /  0mm
14:04 32.5 °F /  0.3 °C 27.0 °F /  -2.8 °C 29.81in /  1009.4hPa WSW 13.0mph /  20.9km/h 17.0mph /  27.4km/h 80% 0.00in /  0mm
14:09 32.5 °F /  0.3 °C 27.0 °F /  -2.8 °C 29.81in /  1009.4hPa SW 11.0mph /  17.7km/h 20.0mph /  32.2km/h 80% 0.00in /  0mm
14:14 32.7 °F /  0.4 °C 26.9 °F /  -2.8 °C 29.81in /  1009.4hPa WSW 11.0mph /  17.7km/h 20.0mph /  32.2km/h 79% 0.00in /  0mm
14:19 32.8 °F /  0.4 °C 26.7 °F /  -2.9 °C 29.81in /  1009.4hPa WSW 11.0mph /  17.7km/h 21.0mph /  33.8km/h 78% 0.00in /  0mm
14:24 32.8 °F /  0.4 °C 26.7 °F /  -2.9 °C 29.81in /  1009.4hPa WSW 10.0mph /  16.1km/h 21.0mph /  33.8km/h 78% 0.00in /  0mm
14:29 33.0 °F /  0.6 °C 26.3 °F /  -3.2 °C 29.81in /  1009.4hPa WSW 10.0mph /  16.1km/h 22.0mph /  35.4km/h 76% 0.00in /  0mm
14:35 33.1 °F /  0.6 °C 26.4 °F /  -3.1 °C 29.81in /  1009.4hPa WSW 11.0mph /  17.7km/h 22.0mph /  35.4km/h 76% 0.00in /  0mm
14:39 33.2 °F /  0.7 °C 26.5 °F /  -3.1 °C 29.81in /  1009.4hPa WSW 9.0mph /  14.5km/h 18.0mph /  29km/h 76% 0.00in /  0mm
14:44 33.2 °F /  0.7 °C 26.1 °F /  -3.3 °C 29.82in /  1009.7hPa WSW 10.0mph /  16.1km/h 19.0mph /  30.6km/h 75% 0.00in /  0mm
14:49 33.4 °F /  0.8 °C 26.3 °F /  -3.2 °C 29.82in /  1009.7hPa SSW 10.0mph /  16.1km/h 22.0mph /  35.4km/h 75% 0.00in /  0mm
14:54 33.4 °F /  0.8 °C 26.6 °F /  -3 °C 29.82in /  1009.7hPa SW 9.0mph /  14.5km/h 20.0mph /  32.2km/h 76% 0.00in /  0mm
14:59 33.5 °F /  0.8 °C 26.4 °F /  -3.1 °C 29.82in /  1009.7hPa WSW 16.0mph /  25.7km/h 18.0mph /  29km/h 75% 0.00in /  0mm
15:04 33.5 °F /  0.8 °C 26.7 °F /  -2.9 °C 29.82in /  1009.7hPa WSW 14.0mph /  22.5km/h 22.0mph /  35.4km/h 76% 0.00in /  0mm
15:09 33.5 °F /  0.8 °C 26.7 °F /  -2.9 °C 29.82in /  1009.7hPa WSW 10.0mph /  16.1km/h 17.0mph /  27.4km/h 76% 0.00in /  0mm
15:14 33.4 °F /  0.8 °C 26.6 °F /  -3 °C 29.82in /  1009.7hPa WSW 11.0mph /  17.7km/h 18.0mph /  29km/h 76% 0.00in /  0mm
15:19 33.4 °F /  0.8 °C 26.3 °F /  -3.2 °C 29.83in /  1010hPa WSW 11.0mph /  17.7km/h 23.0mph /  37km/h 75% 0.00in /  0mm
15:24 33.4 °F /  0.8 °C 26.6 °F /  -3 °C 29.83in /  1010hPa WSW 10.0mph /  16.1km/h 23.0mph /  37km/h 76% 0.00in /  0mm
15:29 33.4 °F /  0.8 °C 26.6 °F /  -3 °C 29.83in /  1010hPa WSW 10.0mph /  16.1km/h 19.0mph /  30.6km/h 76% 0.00in /  0mm
15:34 33.3 °F /  0.7 °C 26.5 °F /  -3.1 °C 29.83in /  1010hPa WSW 10.0mph /  16.1km/h 20.0mph /  32.2km/h 76% 0.00in /  0mm
15:40 33.3 °F /  0.7 °C 26.9 °F /  -2.8 °C 29.83in /  1010hPa WSW 11.0mph /  17.7km/h 27.0mph /  43.5km/h 77% 0.01in /  0.25mm
15:44 33.2 °F /  0.7 °C 26.8 °F /  -2.9 °C 29.83in /  1010hPa West 12.0mph /  19.3km/h 20.0mph /  32.2km/h 77% 0.01in /  0.25mm
15:49 33.1 °F /  0.6 °C 27.0 °F /  -2.8 °C 29.84in /  1010.4hPa West 6.0mph /  9.7km/h 18.0mph /  29km/h 78% 0.01in /  0.25mm
15:54 33.1 °F /  0.6 °C 27.3 °F /  -2.6 °C 29.84in /  1010.4hPa West 4.0mph /  6.4km/h 18.0mph /  29km/h 79% 0.01in /  0.25mm
15:59 33.0 °F /  0.6 °C 27.2 °F /  -2.7 °C 29.85in /  1010.7hPa WSW 12.0mph /  19.3km/h 20.0mph /  32.2km/h 79% 0.01in /  0.25mm
16:04 33.0 °F /  0.6 °C 27.2 °F /  -2.7 °C 29.85in /  1010.7hPa WSW 11.0mph /  17.7km/h 17.0mph /  27.4km/h 79% 0.01in /  0.25mm
16:09 33.0 °F /  0.6 °C 27.2 °F /  -2.7 °C 29.86in /  1011.1hPa SW 6.0mph /  9.7km/h 21.0mph /  33.8km/h 79% 0.01in /  0.25mm
16:14 33.0 °F /  0.6 °C 27.2 °F /  -2.7 °C 29.86in /  1011.1hPa West 5.0mph /  8km/h 17.0mph /  27.4km/h 79% 0.01in /  0.25mm
16:19 33.0 °F /  0.6 °C 27.2 °F /  -2.7 °C 29.86in /  1011.1hPa West 8.0mph /  12.9km/h 17.0mph /  27.4km/h 79% 0.01in /  0.25mm
16:24 33.0 °F /  0.6 °C 27.2 °F /  -2.7 °C 29.87in /  1011.4hPa WSW 9.0mph /  14.5km/h 20.0mph /  32.2km/h 79% 0.01in /  0.25mm
16:29 33.0 °F /  0.6 °C 27.2 °F /  -2.7 °C 29.87in /  1011.4hPa WSW 9.0mph /  14.5km/h 20.0mph /  32.2km/h 79% 0.01in /  0.25mm
16:34 33.0 °F /  0.6 °C 26.9 °F /  -2.8 °C 29.87in /  1011.4hPa WSW 8.0mph /  12.9km/h 20.0mph /  32.2km/h 78% 0.01in /  0.25mm
16:39 33.0 °F /  0.6 °C 26.9 °F /  -2.8 °C 29.87in /  1011.4hPa WSW 8.0mph /  12.9km/h 17.0mph /  27.4km/h 78% 0.00in /  0mm
16:44 33.0 °F /  0.6 °C 27.2 °F /  -2.7 °C 29.88in /  1011.7hPa WSW 8.0mph /  12.9km/h 17.0mph /  27.4km/h 79% 0.00in /  0mm
16:49 33.0 °F /  0.6 °C 26.9 °F /  -2.8 °C 29.88in /  1011.7hPa WSW 5.0mph /  8km/h 14.0mph /  22.5km/h 78% 0.00in /  0mm
16:54 33.0 °F /  0.6 °C 26.9 °F /  -2.8 °C 29.89in /  1012.1hPa WNW 14.0mph /  22.5km/h 14.0mph /  22.5km/h 78% 0.00in /  0mm
16:59 33.0 °F /  0.6 °C 26.9 °F /  -2.8 °C 29.89in /  1012.1hPa West 9.0mph /  14.5km/h 17.0mph /  27.4km/h 78% 0.00in /  0mm
17:04 33.0 °F /  0.6 °C 26.6 °F /  -3 °C 29.89in /  1012.1hPa West 4.0mph /  6.4km/h 12.0mph /  19.3km/h 77% 0.00in /  0mm
17:09 32.9 °F /  0.5 °C 26.5 °F /  -3.1 °C 29.89in /  1012.1hPa West 6.0mph /  9.7km/h 11.0mph /  17.7km/h 77% 0.00in /  0mm
17:14 32.9 °F /  0.5 °C 26.5 °F /  -3.1 °C 29.90in /  1012.4hPa WSW 5.0mph /  8km/h 11.0mph /  17.7km/h 77% 0.00in /  0mm
17:19 32.9 °F /  0.5 °C 26.2 °F /  -3.2 °C 29.90in /  1012.4hPa West 6.0mph /  9.7km/h 13.0mph /  20.9km/h 76% 0.00in /  0mm
17:24 33.0 °F /  0.6 °C 26.3 °F /  -3.2 °C 29.90in /  1012.4hPa WSW 7.0mph /  11.3km/h 14.0mph /  22.5km/h 76% 0.00in /  0mm
17:29 32.8 °F /  0.4 °C 26.4 °F /  -3.1 °C 29.90in /  1012.4hPa West 6.0mph /  9.7km/h 14.0mph /  22.5km/h 77% 0.00in /  0mm
17:34 32.8 °F /  0.4 °C 26.1 °F /  -3.3 °C 29.91in /  1012.8hPa West 6.0mph /  9.7km/h 13.0mph /  20.9km/h 76% 0.00in /  0mm
17:39 32.8 °F /  0.4 °C 25.7 °F /  -3.5 °C 29.91in /  1012.8hPa WSW 7.0mph /  11.3km/h 14.0mph /  22.5km/h 75% 0.00in /  0mm
17:44 32.9 °F /  0.5 °C 25.8 °F /  -3.4 °C 29.91in /  1012.8hPa West 7.0mph /  11.3km/h 15.0mph /  24.1km/h 75% 0.00in /  0mm
17:49 32.9 °F /  0.5 °C 25.8 °F /  -3.4 °C 29.92in /  1013.1hPa West 7.0mph /  11.3km/h 15.0mph /  24.1km/h 75% 0.00in /  0mm
17:54 32.8 °F /  0.4 °C 25.7 °F /  -3.5 °C 29.92in /  1013.1hPa WNW 6.0mph /  9.7km/h 13.0mph /  20.9km/h 75% 0.00in /  0mm
17:59 32.8 °F /  0.4 °C 25.7 °F /  -3.5 °C 29.92in /  1013.1hPa SSW 9.0mph /  14.5km/h 15.0mph /  24.1km/h 75% 0.00in /  0mm
18:04 32.9 °F /  0.5 °C 25.8 °F /  -3.4 °C 29.93in /  1013.4hPa West 10.0mph /  16.1km/h 14.0mph /  22.5km/h 75% 0.00in /  0mm
18:09 32.8 °F /  0.4 °C 26.1 °F /  -3.3 °C 29.93in /  1013.4hPa West 8.0mph /  12.9km/h 13.0mph /  20.9km/h 76% 0.00in /  0mm
18:14 32.8 °F /  0.4 °C 26.1 °F /  -3.3 °C 29.94in /  1013.8hPa WSW 7.0mph /  11.3km/h 14.0mph /  22.5km/h 76% 0.00in /  0mm
18:19 32.7 °F /  0.4 °C 26.0 °F /  -3.3 °C 29.94in /  1013.8hPa WSW 5.0mph /  8km/h 14.0mph /  22.5km/h 76% 0.00in /  0mm
18:24 32.7 °F /  0.4 °C 26.0 °F /  -3.3 °C 29.94in /  1013.8hPa West 6.0mph /  9.7km/h 14.0mph /  22.5km/h 76% 0.00in /  0mm
18:29 32.7 °F /  0.4 °C 26.0 °F /  -3.3 °C 29.95in /  1014.1hPa West 7.0mph /  11.3km/h 14.0mph /  22.5km/h 76% 0.00in /  0mm
18:34 32.8 °F /  0.4 °C 26.1 °F /  -3.3 °C 29.95in /  1014.1hPa West 8.0mph /  12.9km/h 19.0mph /  30.6km/h 76% 0.00in /  0mm
18:39 32.7 °F /  0.4 °C 26.0 °F /  -3.3 °C 29.95in /  1014.1hPa West 8.0mph /  12.9km/h 19.0mph /  30.6km/h 76% 0.00in /  0mm
18:44 32.7 °F /  0.4 °C 26.0 °F /  -3.3 °C 29.96in /  1014.4hPa West 7.0mph /  11.3km/h 14.0mph /  22.5km/h 76% 0.00in /  0mm
18:49 32.7 °F /  0.4 °C 26.0 °F /  -3.3 °C 29.96in /  1014.4hPa WSW 7.0mph /  11.3km/h 17.0mph /  27.4km/h 76% 0.00in /  0mm
18:54 32.8 °F /  0.4 °C 25.7 °F /  -3.5 °C 29.96in /  1014.4hPa West 8.0mph /  12.9km/h 24.0mph /  38.6km/h 75% 0.00in /  0mm
18:59 32.8 °F /  0.4 °C 25.7 °F /  -3.5 °C 29.96in /  1014.4hPa West 4.0mph /  6.4km/h 15.0mph /  24.1km/h 75% 0.00in /  0mm
19:04 32.8 °F /  0.4 °C 25.4 °F /  -3.7 °C 29.97in /  1014.8hPa West 7.0mph /  11.3km/h 15.0mph /  24.1km/h 74% 0.00in /  0mm
19:09 32.8 °F /  0.4 °C 25.4 °F /  -3.7 °C 29.97in /  1014.8hPa WSW 7.0mph /  11.3km/h 13.0mph /  20.9km/h 74% 0.00in /  0mm
19:14 32.9 °F /  0.5 °C 25.2 °F /  -3.8 °C 29.97in /  1014.8hPa SW 5.0mph /  8km/h 12.0mph /  19.3km/h 73% 0.00in /  0mm
19:19 33.0 °F /  0.6 °C 25.3 °F /  -3.7 °C 29.97in /  1014.8hPa WSW 9.0mph /  14.5km/h 11.0mph /  17.7km/h 73% 0.00in /  0mm
19:24 33.0 °F /  0.6 °C 25.3 °F /  -3.7 °C 29.97in /  1014.8hPa WSW 5.0mph /  8km/h 13.0mph /  20.9km/h 73% 0.00in /  0mm
19:29 33.0 °F /  0.6 °C 25.3 °F /  -3.7 °C 29.97in /  1014.8hPa West 11.0mph /  17.7km/h 16.0mph /  25.7km/h 73% 0.00in /  0mm
19:34 32.9 °F /  0.5 °C 25.5 °F /  -3.6 °C 29.97in /  1014.8hPa West 7.0mph /  11.3km/h 17.0mph /  27.4km/h 74% 0.00in /  0mm
19:39 32.9 °F /  0.5 °C 25.5 °F /  -3.6 °C 29.98in /  1015.1hPa WSW 9.0mph /  14.5km/h 18.0mph /  29km/h 74% 0.00in /  0mm
19:44 32.9 °F /  0.5 °C 25.5 °F /  -3.6 °C 29.98in /  1015.1hPa WSW 9.0mph /  14.5km/h 18.0mph /  29km/h 74% 0.00in /  0mm
19:49 32.8 °F /  0.4 °C 25.7 °F /  -3.5 °C 29.99in /  1015.5hPa WSW 8.0mph /  12.9km/h 16.0mph /  25.7km/h 75% 0.00in /  0mm
19:54 32.8 °F /  0.4 °C 25.7 °F /  -3.5 °C 29.99in /  1015.5hPa WSW 8.0mph /  12.9km/h 16.0mph /  25.7km/h 75% 0.00in /  0mm
19:59 32.7 °F /  0.4 °C 25.6 °F /  -3.6 °C 29.99in /  1015.5hPa WSW 8.0mph /  12.9km/h 15.0mph /  24.1km/h 75% 0.00in /  0mm
20:04 32.6 °F /  0.3 °C 25.9 °F /  -3.4 °C 29.99in /  1015.5hPa West 4.0mph /  6.4km/h 11.0mph /  17.7km/h 76% 0.00in /  0mm
20:09 32.5 °F /  0.3 °C 25.8 °F /  -3.4 °C 29.99in /  1015.5hPa WSW 6.0mph /  9.7km/h 17.0mph /  27.4km/h 76% 0.00in /  0mm
20:14 32.5 °F /  0.3 °C 25.8 °F /  -3.4 °C 29.99in /  1015.5hPa West 6.0mph /  9.7km/h 12.0mph /  19.3km/h 76% 0.00in /  0mm
20:19 32.5 °F /  0.3 °C 25.8 °F /  -3.4 °C 29.99in /  1015.5hPa West 6.0mph /  9.7km/h 15.0mph /  24.1km/h 76% 0.00in /  0mm
20:24 32.4 °F /  0.2 °C 25.7 °F /  -3.5 °C 30.00in /  1015.8hPa West 5.0mph /  8km/h 19.0mph /  30.6km/h 76% 0.00in /  0mm
20:29 32.4 °F /  0.2 °C 26.0 °F /  -3.3 °C 30.00in /  1015.8hPa West 7.0mph /  11.3km/h 19.0mph /  30.6km/h 77% 0.00in /  0mm
20:34 32.3 °F /  0.2 °C 25.9 °F /  -3.4 °C 30.01in /  1016.1hPa NW 7.0mph /  11.3km/h 13.0mph /  20.9km/h 77% 0.00in /  0mm
20:39 32.2 °F /  0.1 °C 25.8 °F /  -3.4 °C 30.01in /  1016.1hPa West 8.0mph /  12.9km/h 16.0mph /  25.7km/h 77% 0.00in /  0mm
20:44 32.0 °F /  0 °C 25.9 °F /  -3.4 °C 30.01in /  1016.1hPa WNW 8.0mph /  12.9km/h 16.0mph /  25.7km/h 78% 0.00in /  0mm
20:49 31.8 °F /  -0.1 °C 25.4 °F /  -3.7 °C 30.01in /  1016.1hPa WNW 7.0mph /  11.3km/h 16.0mph /  25.7km/h 77% 0.00in /  0mm
20:54 31.6 °F /  -0.2 °C 24.9 °F /  -3.9 °C 30.02in /  1016.5hPa WNW 7.0mph /  11.3km/h 16.0mph /  25.7km/h 76% 0.00in /  0mm
20:59 31.4 °F /  -0.3 °C 24.1 °F /  -4.4 °C 30.02in /  1016.5hPa WNW 7.0mph /  11.3km/h 15.0mph /  24.1km/h 74% 0.00in /  0mm
21:04 31.3 °F /  -0.4 °C 23.3 °F /  -4.8 °C 30.02in /  1016.5hPa NW 9.0mph /  14.5km/h 14.0mph /  22.5km/h 72% 0.00in /  0mm
21:09 31.1 °F /  -0.5 °C 22.8 °F /  -5.1 °C 30.03in /  1016.8hPa WNW 5.0mph /  8km/h 20.0mph /  32.2km/h 71% 0.00in /  0mm
21:14 31.0 °F /  -0.6 °C 22.7 °F /  -5.2 °C 30.03in /  1016.8hPa WNW 9.0mph /  14.5km/h 20.0mph /  32.2km/h 71% 0.00in /  0mm
21:19 30.8 °F /  -0.7 °C 22.5 °F /  -5.3 °C 30.03in /  1016.8hPa WNW 8.0mph /  12.9km/h 19.0mph /  30.6km/h 71% 0.00in /  0mm
21:24 30.7 °F /  -0.7 °C 21.7 °F /  -5.7 °C 30.03in /  1016.8hPa WNW 8.0mph /  12.9km/h 15.0mph /  24.1km/h 69% 0.00in /  0mm
21:29 30.6 °F /  -0.8 °C 21.3 °F /  -5.9 °C 30.04in /  1017.2hPa NW 6.0mph /  9.7km/h 12.0mph /  19.3km/h 68% 0.00in /  0mm
21:34 30.5 °F /  -0.8 °C 21.2 °F /  -6 °C 30.04in /  1017.2hPa WNW 11.0mph /  17.7km/h 17.0mph /  27.4km/h 68% 0.00in /  0mm
21:39 30.4 °F /  -0.9 °C 21.1 °F /  -6.1 °C 30.04in /  1017.2hPa NW 6.0mph /  9.7km/h 14.0mph /  22.5km/h 68% 0.00in /  0mm
21:44 30.4 °F /  -0.9 °C 21.1 °F /  -6.1 °C 30.04in /  1017.2hPa WNW 7.0mph /  11.3km/h 14.0mph /  22.5km/h 68% 0.00in /  0mm
21:49 30.3 °F /  -0.9 °C 21.0 °F /  -6.1 °C 30.04in /  1017.2hPa WNW 8.0mph /  12.9km/h 15.0mph /  24.1km/h 68% 0.00in /  0mm
21:54 30.3 °F /  -0.9 °C 20.6 °F /  -6.3 °C 30.04in /  1017.2hPa West 10.0mph /  16.1km/h 15.0mph /  24.1km/h 67% 0.00in /  0mm
21:59 30.2 °F /  -1 °C 20.2 °F /  -6.6 °C 30.04in /  1017.2hPa West 8.0mph /  12.9km/h 14.0mph /  22.5km/h 66% 0.00in /  0mm
22:04 30.1 °F /  -1.1 °C 20.1 °F /  -6.6 °C 30.04in /  1017.2hPa West 5.0mph /  8km/h 13.0mph /  20.9km/h 66% 0.00in /  0mm
22:09 30.0 °F /  -1.1 °C 20.0 °F /  -6.7 °C 30.05in /  1017.5hPa NW 4.0mph /  6.4km/h 10.0mph /  16.1km/h 66% 0.00in /  0mm
22:14 29.8 °F /  -1.2 °C 19.5 °F /  -6.9 °C 30.05in /  1017.5hPa West 7.0mph /  11.3km/h 11.0mph /  17.7km/h 65% 0.00in /  0mm
22:19 29.7 °F /  -1.3 °C 19.0 °F /  -7.2 °C 30.05in /  1017.5hPa WNW 6.0mph /  9.7km/h 11.0mph /  17.7km/h 64% 0.00in /  0mm
22:24 29.6 °F /  -1.3 °C 18.9 °F /  -7.3 °C 30.05in /  1017.5hPa WNW 6.0mph /  9.7km/h 10.0mph /  16.1km/h 64% 0.00in /  0mm
22:29 29.6 °F /  -1.3 °C 18.5 °F /  -7.5 °C 30.05in /  1017.5hPa WNW 6.0mph /  9.7km/h 15.0mph /  24.1km/h 63% 0.00in /  0mm
22:34 29.6 °F /  -1.3 °C 18.9 °F /  -7.3 °C 30.05in /  1017.5hPa WNW 6.0mph /  9.7km/h 15.0mph /  24.1km/h 64% 0.00in /  0mm
22:39 29.3 °F /  -1.5 °C 19.0 °F /  -7.2 °C 30.05in /  1017.5hPa WNW 5.0mph /  8km/h 10.0mph /  16.1km/h 65% 0.00in /  0mm
22:44 29.2 °F /  -1.6 °C 19.2 °F /  -7.1 °C 30.05in /  1017.5hPa West 9.0mph /  14.5km/h 10.0mph /  16.1km/h 66% 0.00in /  0mm
22:49 29.3 °F /  -1.5 °C 19.3 °F /  -7.1 °C 30.06in /  1017.8hPa WNW 5.0mph /  8km/h 10.0mph /  16.1km/h 66% 0.00in /  0mm
22:54 29.2 °F /  -1.6 °C 19.6 °F /  -6.9 °C 30.05in /  1017.5hPa WNW 5.0mph /  8km/h 10.0mph /  16.1km/h 67% 0.00in /  0mm
22:59 29.3 °F /  -1.5 °C 19.7 °F /  -6.8 °C 30.05in /  1017.5hPa WNW 5.0mph /  8km/h 9.0mph /  14.5km/h 67% 0.00in /  0mm
23:04 29.1 °F /  -1.6 °C 19.5 °F /  -6.9 °C 30.05in /  1017.5hPa West 9.0mph /  14.5km/h 11.0mph /  17.7km/h 67% 0.00in /  0mm
23:09 29.0 °F /  -1.7 °C 19.4 °F /  -7 °C 30.05in /  1017.5hPa West 4.0mph /  6.4km/h 12.0mph /  19.3km/h 67% 0.00in /  0mm
23:14 28.9 °F /  -1.7 °C 19.3 °F /  -7.1 °C 30.06in /  1017.8hPa West 4.0mph /  6.4km/h 9.0mph /  14.5km/h 67% 0.00in /  0mm
23:19 28.9 °F /  -1.7 °C 19.3 °F /  -7.1 °C 30.06in /  1017.8hPa West 6.0mph /  9.7km/h 12.0mph /  19.3km/h 67% 0.00in /  0mm
23:24 28.9 °F /  -1.7 °C 19.3 °F /  -7.1 °C 30.06in /  1017.8hPa West 5.0mph /  8km/h 12.0mph /  19.3km/h 67% 0.00in /  0mm
23:29 28.9 °F /  -1.7 °C 19.3 °F /  -7.1 °C 30.06in /  1017.8hPa West 5.0mph /  8km/h 11.0mph /  17.7km/h 67% 0.00in /  0mm
23:34 28.8 °F /  -1.8 °C 19.2 °F /  -7.1 °C 30.07in /  1018.2hPa West 6.0mph /  9.7km/h 11.0mph /  17.7km/h 67% 0.00in /  0mm
23:44 28.5 °F /  -1.9 °C 19.3 °F /  -7.1 °C 30.06in /  1017.8hPa West 5.0mph /  8km/h 10.0mph /  16.1km/h 68% 0.00in /  0mm
23:49 28.5 °F /  -1.9 °C 19.3 °F /  -7.1 °C 30.07in /  1018.2hPa West 8.0mph /  12.9km/h 10.0mph /  16.1km/h 68% 0.00in /  0mm
23:54 28.4 °F /  -2 °C 19.2 °F /  -7.1 °C 30.07in /  1018.2hPa West 5.0mph /  8km/h 11.0mph /  17.7km/h 68% 0.00in /  0mm
23:59 28.4 °F /  -2 °C 19.5 °F /  -6.9 °C 30.07in /  1018.2hPa WNW 7.0mph /  11.3km/h 9.0mph /  14.5km/h 69% 0.00in /  0mm
Buffalo, New York, USA
Compliments of Weather Underground - 2.5 mb